Weather observations for the past three days for
Williams/Clark Memorial Airport
Imperial (Metric)
Date Time (mst) Wind (mph) Vis. (mi.) Weather Sky Cond. Temperature (ºF) Relative Humidity Wind Chill (°F) Heat Index (°F) Pressure Precipitation (in)
Air Dwpt 6 hour altimeter (in) sea level (mb) 1 hr 3 hr 6 hr
Max. Min.
06 19:15 NW 7 10.00 A Few Clouds FEW090 59 21.2 23% 30.13 0.0
06 18:55 NW 5 10.00 Fair CLR 60.8 21.2 22% 30.13 0.0
06 18:35 N 7 10.00 Fair CLR 62.6 21.2 20% 30.12 0.0
06 18:15 N 7 G 15 10.00 Fair CLR 62.6 21.2 20% 30.12 0.0
06 17:55 N 12 10.00 Fair CLR 62.6 21.2 20% 30.12 0.0
06 17:35 N 7 G 17 10.00 Fair CLR 64.4 21.2 19% 30.12 0.0
06 17:15 NW 12 G 21 10.00 Fair CLR 64.4 21.2 19% 30.11 0.0
06 16:55 N 10 G 24 10.00 Fair CLR 64.4 21.2 19% 30.11 0.0
06 16:35 N 12 G 26 10.00 Fair CLR 66.2 21.2 18% 30.11 0.0
06 16:15 NW 13 G 18 10.00 Fair CLR 66.2 19.4 17% 30.11 0.0
06 15:55 N 14 10.00 Fair CLR 64.4 19.4 18% 30.11 0.0
06 15:35 NW 14 G 21 10.00 Fair CLR 66.2 19.4 17% 30.11 0.0
06 15:15 N 9 G 22 10.00 Fair CLR 64.4 23 21% 30.11 0.0
06 14:55 N 14 G 21 10.00 Fair CLR 64.4 19.4 18% 30.12 0.0
06 14:35 N 8 G 16 10.00 A Few Clouds FEW080 64.4 23 21% 30.12 0.0
06 14:15 N 21 10.00 A Few Clouds and Breezy FEW075 62.6 23 22% 30.12 0.0
06 13:55 NW 12 G 22 10.00 Partly Cloudy SCT075 64.4 24.8 22% 30.13 0.0
06 13:35 N 13 G 22 10.00 A Few Clouds FEW075 62.6 26.6 25% 30.13 0.0
06 13:15 NW 15 G 23 10.00 Partly Cloudy SCT075 62.6 24.8 24% 30.12 0.0
06 12:55 NW 10 G 25 10.00 Partly Cloudy SCT070 SCT080 62.6 26.6 25% 30.13 0.0
06 12:35 NW 14 G 22 10.00 A Few Clouds FEW065 FEW075 62.6 26.6 25% 30.13 0.0
06 12:15 NW 17 G 24 10.00 A Few Clouds FEW065 60.8 26.6 27% 30.13 0.0
06 11:55 NW 16 G 24 10.00 Fair CLR 60.8 26.6 27% 30.14 0.0
06 11:35 N 14 10.00 A Few Clouds FEW060 59 26.6 29% 30.14 0.0
06 11:15 Vrbl 5 G 20 10.00 Fair CLR 59 26.6 29% 30.14 0.0
06 10:55 N 12 10.00 Fair CLR 59 26.6 29% 30.14 0.0
06 10:35 Vrbl 6 G 17 10.00 Fair CLR 57.2 26.6 31% 30.14 0.0
06 10:15 NW 12 10.00 Fair CLR 55.4 26.6 33% 30.14 0.0
06 09:55 NW 10 G 17 10.00 Fair CLR 55.4 24.8 31% 30.13 0.0
06 09:35 NW 9 G 16 10.00 Fair CLR 53.6 24.8 33% 30.13 0.0
06 09:15 NW 8 10.00 Fair CLR 51.8 26.6 38% 30.13 0.0
06 08:55 W 9 10.00 Fair CLR 51.8 26.6 38% 30.13 0.0
06 08:35 NW 7 10.00 Fair CLR 50 26.6 40% 48 30.13 0.0
06 08:15 NW 10 10.00 Fair CLR 50 26.6 40% 46 30.12 0.0
06 07:55 W 8 10.00 Fair CLR 48.2 26.6 43% 45 30.12 0.0
06 07:35 NW 5 10.00 Fair CLR 46.4 26.6 46% 45 30.11 0.0
06 07:15 Vrbl 5 10.00 Fair CLR 44.6 26.6 49% 43 30.11 0.0
06 06:55 Calm 10.00 Fair CLR 39.2 26.6 61% 30.1 0.0
06 06:35 SE 3 10.00 Fair CLR 35.6 26.6 70% 30.1 0.0
06 06:15 S 6 10.00 Fair CLR 32 24.8 75% 27 30.09 0.0
06 05:55 S 6 10.00 Fair CLR 30.2 24.8 80% 25 30.08 0.0
06 05:35 S 5 10.00 Fair CLR 30.2 24.8 80% 26 30.08 0.0
06 05:15 S 5 10.00 Fair CLR 28.4 23 80% 24 30.07 0.0
06 04:55 Calm 10.00 A Few Clouds FEW045 32 23 69% 30.07 0.0
06 04:35 W 5 10.00 Fair CLR 37.4 24.8 60% 34 30.07 0.0
06 04:15 Calm 10.00 Fair CLR 33.8 24.8 70% 30.07 0.0
06 03:55 E 6 10.00 Fair CLR 30.2 24.8 80% 25 30.06 0.0
06 03:35 SE 7 10.00 Fair CLR 30.2 24.8 80% 24 30.06 0.0
06 03:15 S 6 10.00 Fair CLR 30.2 24.8 80% 25 30.05 0.0
06 02:55 S 5 10.00 Fair CLR 30.2 24.8 80% 26 30.05 0.0
06 02:35 S 6 10.00 Fair CLR 30.2 24.8 80% 25 30.05 0.0
06 02:15 S 3 10.00 Fair CLR 30.2 24.8 80% 30.05 0.0
06 01:55 S 6 10.00 Fair CLR 30.2 23 75% 25 30.05 0.0
06 01:35 Calm 10.00 A Few Clouds FEW048 30.2 23 75% 30.05 0.0
06 01:15 Calm 10.00 Fair CLR 32 23 69% 30.05 0.0
06 00:55 SW 6 10.00 Fair CLR 35.6 24.8 65% 31 30.05 0.0
06 00:35 SW 3 10.00 Fair CLR 35.6 24.8 65% 30.06 0.0
06 00:15 S 3 10.00 Fair CLR 35.6 23 60% 30.06 0.0
05 23:55 SE 6 10.00 Fair CLR 35.6 24.8 65% 31 30.05 0.0
05 23:35 S 6 10.00 Fair CLR 35.6 24.8 65% 31 30.04 0.0
05 22:55 Calm 10.00 A Few Clouds FEW085 39.2 24.8 56% 30.03 0.0
05 22:35 SW 5 10.00 Mostly Cloudy FEW075 BKN090 39.2 24.8 56% 36 30.04 0.0
05 22:15 SW 7 10.00 Overcast BKN075 OVC090 41 26.6 57% 37 30.03 0.0
05 21:55 W 7 10.00 Mostly Cloudy FEW049 SCT055 BKN075 41 26.6 57% 37 30.04 0.0
05 21:35 SW 7 10.00 Overcast SCT048 BKN055 OVC065 42.8 24.8 49% 39 30.03 0.0
05 21:15 SW 6 10.00 Overcast SCT050 OVC065 42.8 26.6 53% 40 30.02 0.0
05 20:55 S 3 10.00 Overcast BKN060 OVC070 42.8 32 66% 30.02 0.0
05 20:35 SE 6 10.00 Mostly Cloudy FEW045 SCT050 BKN065 42.8 32 66% 40 30.01 0.0
05 20:15 SE 6 10.00 Overcast SCT046 OVC075 42.8 32 66% 40 30 0.0
05 19:55 E 3 10.00 Overcast FEW045 BKN075 OVC085 42.8 33.8 71% 29.99 0.0
05 19:35 Calm 10.00 Mostly Cloudy FEW010 SCT040 BKN047 42.8 33.8 71% 29.99 0.0
05 19:15 SW 8 G 17 7.00 Light Rain FEW011 SCT033 BKN046 42.8 32 66% 39 29.98 0.0
05 18:55 NW 9 10.00 Mostly Cloudy FEW026 SCT050 BKN070 42.8 32 66% 38 29.98 0.0
05 18:35 W 12 10.00 Mostly Cloudy FEW024 SCT037 BKN055 42.8 33.8 71% 37 29.97 0.0
05 18:15 W 10 10.00 Light Rain FEW044 SCT055 OVC065 44.6 32 61% 40 29.96 0.0
05 17:55 E 8 G 14 10.00 Overcast OVC065 46.4 32 57% 43 29.95 0.0
05 17:35 E 8 G 15 10.00 Overcast OVC065 46.4 32 57% 43 29.95 0.0
05 17:15 E 12 G 18 10.00 Overcast OVC070 46.4 32 57% 42 29.94 0.0
05 16:55 Vrbl 7 G 14 10.00 Overcast BKN070 OVC080 51.8 21.2 30% 29.92 0.0
05 16:35 S 10 10.00 Overcast OVC070 50 26.6 40% 46 29.91 0.0
05 16:15 S 13 G 23 10.00 Mostly Cloudy FEW046 SCT055 BKN065 50 26.6 40% 46 29.91 0.0
05 15:55 Calm 10.00 Mostly Cloudy SCT050 BKN060 BKN080 48.2 26.6 43% 29.91 0.0
05 15:35 SW 10 G 25 10.00 Mostly Cloudy BKN060 BKN070 BKN090 53.6 23 30% 29.92 0.0
05 15:15 S 14 G 22 10.00 Overcast BKN060 BKN070 OVC100 51.8 24.8 35% 29.92 0.0
05 14:55 SW 16 G 25 10.00 Mostly Cloudy BKN060 BKN070 BKN100 55.4 24.8 31% 29.92 0.0
05 14:35 S 18 G 26 10.00 Partly Cloudy SCT055 SCT090 55.4 26.6 33% 29.92 0.0
05 14:15 SW 15 10.00 Mostly Cloudy SCT055 SCT070 BKN090 55.4 26.6 33% 29.93 0.0
05 13:55 W 9 G 20 10.00 Mostly Cloudy SCT055 BKN070 51.8 26.6 38% 29.93 0.0
05 13:35 SW 21 10.00 Mostly Cloudy and Breezy SCT055 BKN070 BKN085 53.6 26.6 35% 29.93 0.0
05 13:15 SW 9 G 21 10.00 Mostly Cloudy SCT060 BKN070 BKN080 53.6 23 30% 29.94 0.0
05 12:55 W 13 G 24 10.00 Mostly Cloudy SCT060 BKN070 BKN080 55.4 24.8 31% 29.93 0.0
05 12:35 SW 17 10.00 Mostly Cloudy SCT060 SCT070 BKN075 55.4 24.8 31% 29.93 0.0
05 12:15 SW 15 G 26 10.00 Partly Cloudy FEW055 SCT070 55.4 24.8 31% 29.94 0.0
05 11:55 SW 14 G 22 10.00 Partly Cloudy SCT060 SCT070 53.6 24.8 33% 29.94 0.0
05 11:35 SW 12 G 23 10.00 A Few Clouds FEW055 FEW065 FEW075 55.4 26.6 33% 29.95 0.0
05 11:15 SW 10 G 21 10.00 A Few Clouds FEW050 FEW060 FEW075 53.6 26.6 35% 29.95 0.0
05 10:55 SW 12 G 20 10.00 A Few Clouds FEW050 53.6 26.6 35% 29.95 0.0
05 10:35 SW 12 G 22 10.00 A Few Clouds FEW050 FEW055 51.8 26.6 38% 29.94 0.0
05 10:15 S 14 10.00 Partly Cloudy SCT048 SCT055 51.8 26.6 38% 29.95 0.0
05 09:55 S 12 G 20 10.00 Partly Cloudy SCT047 SCT055 51.8 26.6 38% 29.96 0.0
05 09:35 S 13 G 18 10.00 Partly Cloudy SCT043 SCT048 50 26.6 40% 46 29.95 0.0
05 09:15 S 14 G 21 10.00 Mostly Cloudy BKN042 BKN050 51.8 28.4 41% 29.96 0.0
05 08:55 S 14 10.00 Partly Cloudy SCT044 SCT050 48.2 26.6 43% 43 29.96 0.0
05 08:35 SW 12 10.00 Partly Cloudy FEW036 SCT043 46.4 30.2 53% 42 29.96 0.0
05 08:15 S 14 10.00 Mostly Cloudy SCT036 BKN043 48.2 30.2 50% 43 29.96 0.0
05 07:55 SW 10 G 17 10.00 A Few Clouds FEW036 46.4 30.2 53% 42 29.95 0.0
05 07:35 S 10 10.00 A Few Clouds FEW032 44.6 32 61% 40 29.95 0.0
05 07:15 SW 8 10.00 Fair CLR 44.6 33.8 66% 41 29.96 0.0
05 06:55 SW 9 10.00 Partly Cloudy FEW022 SCT028 SCT035 42.8 33.8 71% 38 29.96 0.0
05 06:35 SW 6 10.00 Overcast FEW022 BKN027 OVC035 42.8 33.8 71% 40 29.96 0.0
05 06:15 SE 5 10.00 Overcast BKN026 OVC031 41 32 70% 38 29.95 0.0
05 05:55 S 5 10.00 Overcast OVC025 37.4 32 81% 34 29.95 0.0
05 05:35 Calm 10.00 Mostly Cloudy BKN025 BKN030 37.4 30.2 75% 29.94 0.0
05 05:15 Vrbl 5 10.00 Partly Cloudy SCT025 SCT031 37.4 30.2 75% 34 29.94 0.0
05 04:55 S 6 10.00 Partly Cloudy SCT026 SCT031 37.4 30.2 75% 33 29.94 0.0
05 04:35 S 8 10.00 Mostly Cloudy FEW026 BKN031 39.2 30.2 70% 34 29.94 0.0
05 04:15 S 10 10.00 Mostly Cloudy SCT023 BKN030 39.2 30.2 70% 33 29.95 0.0
05 03:55 S 8 10.00 Overcast BKN024 OVC032 41 32 70% 36 29.96 0.0
05 03:35 S 13 10.00 Overcast BKN026 OVC032 39.2 30.2 70% 32 29.96 0.0
05 03:15 S 13 10.00 Mostly Cloudy FEW026 BKN032 41 30.2 66% 34 29.97 0.0
05 02:55 S 10 10.00 Fair CLR 39.2 28.4 65% 33 29.97 0.0
05 02:35 S 8 10.00 Fair CLR 39.2 28.4 65% 34 29.97 0.0
05 02:15 S 14 10.00 Fair CLR 41 30.2 66% 34 29.97 0.0
05 01:55 S 9 10.00 Fair CLR 41 30.2 66% 36 29.98 0.0
05 01:35 S 8 10.00 Fair CLR 41 28.4 61% 36 29.99 0.0
05 01:15 S 10 G 17 10.00 Fair CLR 42.8 28.4 57% 38 29.99 0.0
05 00:55 S 13 G 25 10.00 Fair CLR 42.8 26.6 53% 37 29.99 0.0
05 00:35 S 9 10.00 Fair CLR 41 21.2 45% 36 30 0.0
05 00:15 Vrbl 6 G 13 10.00 Fair CLR 42.8 19.4 39% 40 30 0.0
04 23:55 Calm 10.00 Fair CLR 42.8 19.4 39% 30 0.0
04 23:35 S 10 G 16 10.00 Fair CLR 44.6 19.4 37% 40 29.99 0.0
04 23:15 S 10 10.00 Fair CLR 44.6 19.4 37% 40 30 0.0
04 22:55 S 8 10.00 Fair CLR 46.4 21.2 37% 43 30 0.0
04 22:35 S 10 10.00 Fair CLR 46.4 24.8 43% 42 30 0.0
04 22:15 S 13 10.00 Fair CLR 46.4 28.4 50% 41 29.99 0.0
04 21:55 S 16 G 25 10.00 Fair CLR 48.2 28.4 46% 43 30 0.0
04 21:35 S 14 G 24 10.00 Fair CLR 48.2 26.6 43% 43 30 0.0
04 21:15 S 10 G 21 10.00 Fair CLR 48.2 23 37% 44 30 0.0
04 20:55 S 16 G 25 10.00 Fair CLR 48.2 17.6 29% 43 30 0.0
04 20:35 S 15 G 21 10.00 Fair CLR 50 19.4 30% 45 30 0.0
04 20:15 S 10 10.00 Fair CLR 50 21.2 32% 46 29.99 0.0
04 19:55 S 8 G 14 10.00 Fair CLR 50 21.2 32% 47 29.98 0.0
04 19:35 S 9 G 18 10.00 Fair CLR 50 19.4 30% 47 29.98 0.0
04 19:15 SW 13 G 22 10.00 Fair CLR 51.8 19.4 28% 29.97 0.0
04 18:55 SW 20 G 29 10.00 Fair CLR 51.8 17.6 26% 29.96 0.0
04 18:35 SW 14 G 25 10.00 Fair CLR 53.6 17.6 24% 29.97 0.0
04 18:15 S 16 G 30 10.00 Fair CLR 53.6 15.8 22% 29.97 0.0
04 17:55 SW 18 G 25 10.00 Fair CLR 55.4 15.8 21% 29.97 0.0
04 17:35 SW 17 G 28 10.00 Fair CLR 55.4 14 19% 29.98 0.0
04 17:15 SW 20 G 31 10.00 Fair CLR 57.2 19.4 23% 29.97 0.0
04 16:55 SW 16 G 32 10.00 Fair CLR 57.2 19.4 23% 29.97 0.0
04 16:35 SW 22 G 30 10.00 Fair and Breezy CLR 57.2 21.2 25% 29.97 0.0
04 16:15 SW 20 G 28 10.00 Fair CLR 59 23 25% 29.97 0.0
04 15:55 SW 18 G 26 10.00 Fair CLR 59 26.6 29% 29.98 0.0
04 15:35 S 26 G 33 10.00 Fair and Windy CLR 59 32 36% 29.98 0.0
04 15:15 S 24 G 35 10.00 A Few Clouds and Breezy FEW060 59 30.2 34% 29.98 0.0
04 14:55 S 24 G 31 10.00 A Few Clouds and Breezy FEW060 60.8 30.2 31% 29.99 0.0
04 14:35 S 21 G 32 10.00 Fair and Breezy CLR 60.8 32 34% 30 0.0
04 14:15 S 22 G 32 10.00 Fair and Breezy CLR 60.8 28.4 29% 30 0.0
04 13:55 S 18 G 30 10.00 Fair CLR 60.8 28.4 29% 30 0.0
04 13:35 S 18 G 33 10.00 Fair CLR 60.8 28.4 29% 30 0.0
04 13:15 SW 24 G 33 10.00 Fair and Breezy CLR 60.8 26.6 27% 30 0.0
04 12:55 SW 16 G 28 10.00 Fair CLR 60.8 30.2 31% 30.01 0.0
04 12:35 SW 20 G 26 10.00 Fair CLR 60.8 30.2 31% 30.01 0.0
04 12:15 S 21 G 32 10.00 Fair and Breezy CLR 59 32 36% 30.01 0.0
04 11:55 S 15 G 24 10.00 A Few Clouds FEW050 59 32 36% 30.02 0.0
04 11:35 S 16 G 26 10.00 A Few Clouds FEW050 57.2 32 39% 30.02 0.0
04 11:15 S 16 G 30 10.00 Fair CLR 57.2 32 39% 30.03 0.0
04 10:55 S 17 G 28 10.00 Fair CLR 57.2 30.2 36% 30.03 0.0
04 10:35 S 21 G 29 10.00 Fair and Breezy CLR 55.4 30.2 38% 30.03 0.0
04 10:15 S 23 G 30 10.00 Fair and Breezy CLR 53.6 33.8 47% 30.03 0.0
04 09:55 S 22 G 28 10.00 Fair and Breezy CLR 53.6 32 44% 30.02 0.0
04 09:35 S 18 G 24 10.00 Fair CLR 53.6 32 44% 30.03 0.0
04 09:15 S 17 G 26 10.00 Fair CLR 53.6 26.6 35% 30.03 0.0
04 08:55 S 14 G 21 10.00 Fair CLR 53.6 28.4 38% 30.04 0.0
04 08:35 SE 14 10.00 Fair CLR 53.6 30.2 41% 30.02 0.0
04 08:15 S 12 10.00 Fair CLR 51.8 30.2 44% 30.03 0.0
04 07:55 SE 13 10.00 Fair CLR 50 30.2 47% 46 30.02 0.0
04 07:35 SE 12 10.00 Fair CLR 48.2 32 54% 44 30.02 0.0
04 07:15 SE 12 G 20 10.00 Fair CLR 48.2 33.8 58% 44 30.02 0.0
04 06:55 SE 12 10.00 Fair CLR 48.2 32 54% 44 30.02 0.0
04 06:35 SE 13 10.00 Fair CLR 48.2 32 54% 43 30.02 0.0
04 06:15 SE 9 G 15 10.00 Fair CLR 46.4 32 57% 42 30.01 0.0
04 05:55 SE 9 10.00 Fair CLR 46.4 32 57% 42 30.01 0.0
04 05:35 SE 10 10.00 Fair CLR 46.4 30.2 53% 42 30.01 0.0
04 05:15 SE 9 10.00 Fair CLR 46.4 30.2 53% 42 30.01 0.0
04 04:55 SE 8 10.00 Fair CLR 48.2 30.2 50% 45 30.01 0.0
04 04:35 SE 7 10.00 Fair CLR 46.4 30.2 53% 43 30.01 0.0
04 04:15 S 7 10.00 Fair CLR 48.2 30.2 50% 46 30.03 0.0
04 03:55 S 10 10.00 Fair CLR 48.2 30.2 50% 44 30.04 0.0
04 03:35 S 7 10.00 Fair CLR 48.2 28.4 46% 46 30.04 0.0
04 03:15 SW 5 10.00 Fair CLR 48.2 28.4 46% 47 30.04 0.0
04 02:55 S 9 10.00 Fair CLR 48.2 26.6 43% 45 30.03 0.0
04 02:35 SE 6 G 15 10.00 Fair CLR 50 28.4 43% 48 30.02 0.0
04 02:15 S 8 10.00 Fair CLR 50 30.2 47% 47 30.03 0.0
04 01:55 S 12 G 18 10.00 Fair CLR 50 30.2 47% 46 30.02 0.0
04 01:35 S 12 G 18 10.00 Fair CLR 50 30.2 47% 46 30.03 0.0
04 01:15 S 14 G 20 10.00 Fair CLR 51.8 28.4 41% 30.03 0.0
04 00:55 SW 9 G 18 10.00 Fair CLR 51.8 28.4 41% 30.02 0.0
04 00:35 SW 10 G 21 10.00 Fair CLR 51.8 28.4 41% 30.03 0.0
04 00:15 SW 14 10.00 Fair CLR 53.6 28.4 38% 30.02 0.0
03 23:55 SW 12 G 18 10.00 Fair CLR 53.6 28.4 38% 30.02 0.0
03 23:35 SW 9 10.00 Fair CLR 53.6 28.4 38% 30.03 0.0
03 23:15 S 12 10.00 Fair CLR 55.4 26.6 33% 30.03 0.0
03 22:55 SW 14 G 23 10.00 A Few Clouds FEW049 FEW055 55.4 26.6 33% 30.03 0.0
03 22:35 SW 10 G 17 10.00 Partly Cloudy SCT050 55.4 23 28% 30.03 0.0
03 22:15 SW 12 10.00 Fair CLR 55.4 23 28% 30.05 0.0
03 21:55 SW 9 10.00 A Few Clouds FEW060 55.4 21.2 26% 30.05 0.0
03 21:35 SW 8 10.00 Partly Cloudy SCT060 55.4 21.2 26% 30.05 0.0
03 21:15 S 9 G 16 10.00 Mostly Cloudy BKN055 BKN065 57.2 21.2 25% 30.04 0.0
03 20:55 SW 8 G 15 10.00 A Few Clouds FEW060 57.2 21.2 25% 30.04 0.0
03 20:35 SW 10 10.00 Fair CLR 57.2 19.4 23% 30.04 0.0
03 20:15 SW 8 10.00 Fair CLR 57.2 19.4 23% 30.03 0.0
03 19:55 SW 8 10.00 A Few Clouds FEW090 57.2 19.4 23% 30.02 0.0
03 19:35 SW 14 G 20 10.00 Fair CLR 59 19.4 21% 30.01 0.0
Date Time (mst) Wind (mph) Vis. (mi.) Weather Sky Cond. Air Dwpt Max. Min. Relative Humidity Wind Chill (°F) Heat Index (°F) altimeter (in) sea level (mb) 1 hr 3 hr 6 hr
6 hour
Temperature (ºF) Pressure Precipitation (in)